Patterson, North Carolina
Current Conditions -  °F | °C
As of 5:35 AM on Saturday 22 Nov 2014 (Local Time) from KMRN Reporting Station
Clear Clear  
Wind Chill: 21°   Ceiling: Unl
Heat Index: 21°   Visibility: 10mi
Dew Point: 19°   Wind: 0mph
Humidity: 91%   Direction: NA
Pressure: 30.56"   Gusts: NA
Location:  36°N, 81.56°W
Report Text: KMRN 221035Z AUTO 00000KT 10SM CLR M06/M07 A3056 RMK AO2 T10631075
Loading
Personal Weather Stations






























Interactive Weather Map New forecast layout! Learn more

10-Day Weather Forecast

Advertisements
Track Severe Weather on mobile